Tan Son Nhat International Airport
VVTS : now visible

Airfield :











YOU CAN JOIN US ON...

 
LOGIN :

Register | Disclaimer

   EN    FR    IT 

 









Legend :    VFR   Marginal VFR   IFR   Intensive IFR   Very Intensive IFR
Visi :
Ceiling :
>= 8 km
>= 3000ft
5 to 8 km
1000 to 3000 ft
1500m to 5 km
500 to 1000 ft
800 to 1500m
200 to 500 ft
< 800m
< 200 ft
Symbols :   Thunderstorms  Fog  Heavy snow  Heavy precipitations  Wind > 20 kt






- Airport Elevation : 33 ft
- IATA code : SGN


VVTS - Tan Son Nhat International

CURRENT METAR :
  • 200530Z VRB03KT 8000 FEW020 33/16 Q1013 NOSIG

EXPIRED METARs :
  • 200500Z VRB04KT 8000 FEW020 33/16 Q1013 NOSIG
  • 200430Z VRB04KT 7000 NSC 32/17 Q1014 NOSIG
  • 200400Z 30004KT 240V040 7000 NSC 31/17 Q1015 NOSIG
  • 200330Z VRB03KT 7000 NSC 31/19 Q1015 NOSIG
  • 200300Z VRB03KT 6000 FEW017 SCT040 30/20 Q1016 NOSIG

TAF TAF VVTS
Valid from the 20 at 00:00 until the 21 at 06:00 UTC


192300Z 2000/2106 VRB03KT 3000 BR SCT017 SCT040
BECMG 2001/2002 9999 NSW
BECMG 2010/2011 15010KT



MET'MAP, your aeronautical weather chart ! - Copyright ORBIFLY December 2007 - Disclaimer

ORBIFLY MET'MAP TEAM :

Programming & Development : Alexandra Zaïnal
Concept & original design : Baudouin d'Aumeries
Assistance for programming : Marc-Olivier Méhu
Technical & hardware support : Manuel Goepfert

Contact : metmap@orbifly.com




SOURCES & CREDITS :

   NOAA       Earth
Advisory